sensor_id;sensor_type;location;lat;lon;timestamp;P1;durP1;ratioP1;P2;durP2;ratioP2
13793;SDS011;31160;49.500;7.772;2023-03-01T00:02:11;8.70;;;5.60;;
13793;SDS011;31160;49.500;7.772;2023-03-01T00:04:38;10.37;;;6.33;;
13793;SDS011;31160;49.500;7.772;2023-03-01T00:07:05;11.87;;;6.20;;
13793;SDS011;31160;49.500;7.772;2023-03-01T00:09:31;7.93;;;5.53;;
13793;SDS011;31160;49.500;7.772;2023-03-01T00:11:58;9.60;;;5.80;;
13793;SDS011;31160;49.500;7.772;2023-03-01T00:14:25;9.07;;;5.63;;
13793;SDS011;31160;49.500;7.772;2023-03-01T00:16:51;11.73;;;5.83;;
13793;SDS011;31160;49.500;7.772;2023-03-01T00:19:19;10.07;;;5.60;;
13793;SDS011;31160;49.500;7.772;2023-03-01T00:21:49;8.90;;;5.97;;
13793;SDS011;31160;49.500;7.772;2023-03-01T00:24:15;10.57;;;5.70;;
13793;SDS011;31160;49.500;7.772;2023-03-01T00:26:42;13.23;;;5.80;;
13793;SDS011;31160;49.500;7.772;2023-03-01T00:29:09;8.87;;;5.47;;
13793;SDS011;31160;49.500;7.772;2023-03-01T00:31:36;10.00;;;6.50;;
13793;SDS011;31160;49.500;7.772;2023-03-01T00:34:04;11.07;;;5.93;;
13793;SDS011;31160;49.500;7.772;2023-03-01T00:36:32;12.47;;;6.07;;
13793;SDS011;31160;49.500;7.772;2023-03-01T00:39:02;9.10;;;6.27;;
13793;SDS011;31160;49.500;7.772;2023-03-01T00:41:30;12.00;;;5.97;;
13793;SDS011;31160;49.500;7.772;2023-03-01T00:43:57;9.90;;;6.50;;
13793;SDS011;31160;49.500;7.772;2023-03-01T00:46:25;11.77;;;6.73;;
13793;SDS011;31160;49.500;7.772;2023-03-01T00:48:53;11.33;;;6.07;;
13793;SDS011;31160;49.500;7.772;2023-03-01T00:51:24;10.50;;;6.63;;
13793;SDS011;31160;49.500;7.772;2023-03-01T00:53:53;10.47;;;6.97;;
13793;SDS011;31160;49.500;7.772;2023-03-01T00:56:21;12.20;;;6.60;;
13793;SDS011;31160;49.500;7.772;2023-03-01T00:58:48;12.07;;;6.80;;
13793;SDS011;31160;49.500;7.772;2023-03-01T01:01:19;11.80;;;7.03;;
13793;SDS011;31160;49.500;7.772;2023-03-01T01:03:51;10.07;;;6.53;;
13793;SDS011;31160;49.500;7.772;2023-03-01T01:06:19;9.83;;;6.40;;
13793;SDS011;31160;49.500;7.772;2023-03-01T01:08:48;11.10;;;6.87;;
13793;SDS011;31160;49.500;7.772;2023-03-01T01:11:16;11.00;;;7.33;;
13793;SDS011;31160;49.500;7.772;2023-03-01T01:13:44;11.87;;;6.83;;
13793;SDS011;31160;49.500;7.772;2023-03-01T01:16:12;12.53;;;6.60;;
13793;SDS011;31160;49.500;7.772;2023-03-01T01:18:40;13.23;;;7.87;;
13793;SDS011;31160;49.500;7.772;2023-03-01T01:21:08;9.53;;;6.10;;
13793;SDS011;31160;49.500;7.772;2023-03-01T01:23:38;9.97;;;6.90;;
13793;SDS011;31160;49.500;7.772;2023-03-01T01:26:07;9.80;;;6.63;;
13793;SDS011;31160;49.500;7.772;2023-03-01T01:28:35;10.83;;;7.23;;
13793;SDS011;31160;49.500;7.772;2023-03-01T01:31:02;14.37;;;7.37;;
13793;SDS011;31160;49.500;7.772;2023-03-01T01:33:30;11.60;;;6.97;;
13793;SDS011;31160;49.500;7.772;2023-03-01T01:35:57;12.53;;;7.23;;
13793;SDS011;31160;49.500;7.772;2023-03-01T01:38:24;10.53;;;6.83;;
13793;SDS011;31160;49.500;7.772;2023-03-01T01:40:50;12.60;;;7.63;;
13793;SDS011;31160;49.500;7.772;2023-03-01T01:43:22;14.23;;;7.47;;
13793;SDS011;31160;49.500;7.772;2023-03-01T01:46:15;10.63;;;7.40;;
13793;SDS011;31160;49.500;7.772;2023-03-01T01:48:59;11.50;;;7.43;;
13793;SDS011;31160;49.500;7.772;2023-03-01T01:51:29;10.97;;;6.93;;
13793;SDS011;31160;49.500;7.772;2023-03-01T01:54:15;10.07;;;7.00;;
13793;SDS011;31160;49.500;7.772;2023-03-01T01:56:57;12.27;;;7.43;;
13793;SDS011;31160;49.500;7.772;2023-03-01T01:59:28;12.60;;;7.77;;
13793;SDS011;31160;49.500;7.772;2023-03-01T02:01:58;11.03;;;7.47;;
13793;SDS011;31160;49.500;7.772;2023-03-01T02:04:28;13.83;;;7.80;;
13793;SDS011;31160;49.500;7.772;2023-03-01T02:06:58;16.00;;;7.70;;
13793;SDS011;31160;49.500;7.772;2023-03-01T02:09:29;14.17;;;7.87;;
13793;SDS011;31160;49.500;7.772;2023-03-01T02:11:58;12.87;;;7.73;;
13793;SDS011;31160;49.500;7.772;2023-03-01T02:14:25;13.47;;;7.50;;
13793;SDS011;31160;49.500;7.772;2023-03-01T02:16:52;14.13;;;8.23;;
13793;SDS011;31160;49.500;7.772;2023-03-01T02:19:39;12.40;;;8.33;;
13793;SDS011;31160;49.500;7.772;2023-03-01T02:22:30;12.30;;;8.20;;
13793;SDS011;31160;49.500;7.772;2023-03-01T02:27:53;16.00;;;7.70;;
13793;SDS011;31160;49.500;7.772;2023-03-01T02:30:40;11.30;;;7.30;;
13793;SDS011;31160;49.500;7.772;2023-03-01T02:33:29;12.97;;;7.23;;
13793;SDS011;31160;49.500;7.772;2023-03-01T02:36:00;12.60;;;8.20;;
13793;SDS011;31160;49.500;7.772;2023-03-01T02:38:28;12.73;;;7.23;;
13793;SDS011;31160;49.500;7.772;2023-03-01T02:40:55;15.77;;;8.40;;
13793;SDS011;31160;49.500;7.772;2023-03-01T02:43:25;14.40;;;8.73;;
13793;SDS011;31160;49.500;7.772;2023-03-01T02:46:01;13.77;;;7.93;;
13793;SDS011;31160;49.500;7.772;2023-03-01T02:48:40;14.87;;;8.50;;
13793;SDS011;31160;49.500;7.772;2023-03-01T02:54:13;13.23;;;7.80;;
13793;SDS011;31160;49.500;7.772;2023-03-01T02:56:42;14.50;;;8.80;;
13793;SDS011;31160;49.500;7.772;2023-03-01T02:59:10;15.57;;;7.87;;
13793;SDS011;31160;49.500;7.772;2023-03-01T03:01:37;14.60;;;7.77;;
13793;SDS011;31160;49.500;7.772;2023-03-01T03:04:08;14.50;;;8.67;;
13793;SDS011;31160;49.500;7.772;2023-03-01T03:06:37;15.70;;;8.53;;
13793;SDS011;31160;49.500;7.772;2023-03-01T03:09:04;12.47;;;8.20;;
13793;SDS011;31160;49.500;7.772;2023-03-01T03:11:31;13.93;;;9.13;;
13793;SDS011;31160;49.500;7.772;2023-03-01T03:13:58;12.93;;;8.33;;
13793;SDS011;31160;49.500;7.772;2023-03-01T03:16:25;12.40;;;8.40;;
13793;SDS011;31160;49.500;7.772;2023-03-01T03:18:52;14.37;;;8.50;;
13793;SDS011;31160;49.500;7.772;2023-03-01T03:21:19;15.63;;;7.97;;
13793;SDS011;31160;49.500;7.772;2023-03-01T03:23:45;12.30;;;8.23;;
13793;SDS011;31160;49.500;7.772;2023-03-01T03:26:12;13.57;;;7.90;;
13793;SDS011;31160;49.500;7.772;2023-03-01T03:28:41;13.47;;;8.70;;
13793;SDS011;31160;49.500;7.772;2023-03-01T03:31:07;12.87;;;8.60;;
13793;SDS011;31160;49.500;7.772;2023-03-01T03:33:34;16.23;;;7.77;;
13793;SDS011;31160;49.500;7.772;2023-03-01T03:36:01;13.83;;;7.93;;
13793;SDS011;31160;49.500;7.772;2023-03-01T03:38:28;15.00;;;8.33;;
13793;SDS011;31160;49.500;7.772;2023-03-01T03:41:03;19.97;;;9.27;;
13793;SDS011;31160;49.500;7.772;2023-03-01T03:43:32;13.33;;;8.17;;
13793;SDS011;31160;49.500;7.772;2023-03-01T03:46:00;15.80;;;9.10;;
13793;SDS011;31160;49.500;7.772;2023-03-01T03:48:39;14.13;;;9.40;;
13793;SDS011;31160;49.500;7.772;2023-03-01T03:51:12;14.67;;;9.00;;
13793;SDS011;31160;49.500;7.772;2023-03-01T03:53:40;13.67;;;8.00;;
13793;SDS011;31160;49.500;7.772;2023-03-01T03:56:07;20.80;;;11.50;;
13793;SDS011;31160;49.500;7.772;2023-03-01T03:58:34;14.93;;;9.10;;
13793;SDS011;31160;49.500;7.772;2023-03-01T04:01:01;17.73;;;10.23;;
13793;SDS011;31160;49.500;7.772;2023-03-01T04:03:28;16.63;;;10.07;;
13793;SDS011;31160;49.500;7.772;2023-03-01T04:05:57;14.40;;;9.90;;
13793;SDS011;31160;49.500;7.772;2023-03-01T04:08:25;15.43;;;9.33;;
13793;SDS011;31160;49.500;7.772;2023-03-01T04:10:56;14.40;;;9.03;;
13793;SDS011;31160;49.500;7.772;2023-03-01T04:13:25;14.70;;;9.47;;
13793;SDS011;31160;49.500;7.772;2023-03-01T04:15:52;12.67;;;8.80;;
13793;SDS011;31160;49.500;7.772;2023-03-01T04:18:21;15.17;;;9.33;;
13793;SDS011;31160;49.500;7.772;2023-03-01T04:20:49;14.87;;;9.23;;
13793;SDS011;31160;49.500;7.772;2023-03-01T04:23:19;15.67;;;8.97;;
13793;SDS011;31160;49.500;7.772;2023-03-01T04:25:50;13.93;;;8.47;;
13793;SDS011;31160;49.500;7.772;2023-03-01T04:28:29;14.83;;;9.13;;
13793;SDS011;31160;49.500;7.772;2023-03-01T04:31:05;14.57;;;9.57;;
13793;SDS011;31160;49.500;7.772;2023-03-01T04:33:43;12.83;;;8.57;;
13793;SDS011;31160;49.500;7.772;2023-03-01T04:36:12;14.13;;;8.63;;
13793;SDS011;31160;49.500;7.772;2023-03-01T04:38:40;15.40;;;10.30;;
13793;SDS011;31160;49.500;7.772;2023-03-01T04:41:08;15.43;;;9.47;;
13793;SDS011;31160;49.500;7.772;2023-03-01T04:43:36;16.23;;;9.53;;
13793;SDS011;31160;49.500;7.772;2023-03-01T04:46:06;15.37;;;9.70;;
13793;SDS011;31160;49.500;7.772;2023-03-01T04:48:41;13.57;;;9.37;;
13793;SDS011;31160;49.500;7.772;2023-03-01T04:51:09;16.27;;;9.37;;
13793;SDS011;31160;49.500;7.772;2023-03-01T04:53:40;15.10;;;10.13;;
13793;SDS011;31160;49.500;7.772;2023-03-01T04:56:07;14.17;;;8.90;;
13793;SDS011;31160;49.500;7.772;2023-03-01T04:58:34;14.80;;;9.03;;
13793;SDS011;31160;49.500;7.772;2023-03-01T05:01:01;14.37;;;9.30;;
13793;SDS011;31160;49.500;7.772;2023-03-01T05:03:41;16.67;;;9.93;;
13793;SDS011;31160;49.500;7.772;2023-03-01T05:06:09;14.73;;;9.63;;
13793;SDS011;31160;49.500;7.772;2023-03-01T05:08:37;15.77;;;9.37;;
13793;SDS011;31160;49.500;7.772;2023-03-01T05:11:05;15.27;;;9.63;;
13793;SDS011;31160;49.500;7.772;2023-03-01T05:13:32;17.50;;;9.73;;
13793;SDS011;31160;49.500;7.772;2023-03-01T05:15:59;15.97;;;10.00;;
13793;SDS011;31160;49.500;7.772;2023-03-01T05:18:28;14.73;;;9.77;;
13793;SDS011;31160;49.500;7.772;2023-03-01T05:21:01;16.83;;;9.67;;
13793;SDS011;31160;49.500;7.772;2023-03-01T05:23:33;15.50;;;10.03;;
13793;SDS011;31160;49.500;7.772;2023-03-01T05:26:00;17.57;;;10.33;;
13793;SDS011;31160;49.500;7.772;2023-03-01T05:28:31;18.63;;;10.60;;
13793;SDS011;31160;49.500;7.772;2023-03-01T05:30:58;16.77;;;10.43;;
13793;SDS011;31160;49.500;7.772;2023-03-01T05:33:25;15.97;;;9.93;;
13793;SDS011;31160;49.500;7.772;2023-03-01T05:35:52;19.20;;;10.73;;
13793;SDS011;31160;49.500;7.772;2023-03-01T05:38:20;17.37;;;10.10;;
13793;SDS011;31160;49.500;7.772;2023-03-01T05:40:47;18.97;;;10.43;;
13793;SDS011;31160;49.500;7.772;2023-03-01T05:43:15;15.90;;;10.40;;
13793;SDS011;31160;49.500;7.772;2023-03-01T05:45:42;14.93;;;9.60;;
13793;SDS011;31160;49.500;7.772;2023-03-01T05:48:10;19.00;;;10.07;;
13793;SDS011;31160;49.500;7.772;2023-03-01T05:50:42;16.07;;;10.23;;
13793;SDS011;31160;49.500;7.772;2023-03-01T05:53:14;17.33;;;9.83;;
13793;SDS011;31160;49.500;7.772;2023-03-01T05:55:43;18.43;;;11.00;;
13793;SDS011;31160;49.500;7.772;2023-03-01T05:58:12;16.30;;;9.87;;
13793;SDS011;31160;49.500;7.772;2023-03-01T06:00:41;16.00;;;10.10;;
13793;SDS011;31160;49.500;7.772;2023-03-01T06:03:10;15.43;;;9.90;;
13793;SDS011;31160;49.500;7.772;2023-03-01T06:05:38;16.07;;;10.50;;
13793;SDS011;31160;49.500;7.772;2023-03-01T06:08:06;15.53;;;10.07;;
13793;SDS011;31160;49.500;7.772;2023-03-01T06:10:33;15.30;;;9.87;;
13793;SDS011;31160;49.500;7.772;2023-03-01T06:13:00;17.05;;;11.13;;
13793;SDS011;31160;49.500;7.772;2023-03-01T06:15:26;15.73;;;10.63;;
13793;SDS011;31160;49.500;7.772;2023-03-01T06:17:54;18.40;;;10.97;;
13793;SDS011;31160;49.500;7.772;2023-03-01T06:20:26;17.80;;;10.37;;
13793;SDS011;31160;49.500;7.772;2023-03-01T06:22:54;17.90;;;11.27;;
13793;SDS011;31160;49.500;7.772;2023-03-01T06:25:23;15.13;;;10.27;;
13793;SDS011;31160;49.500;7.772;2023-03-01T06:27:51;17.10;;;11.00;;
13793;SDS011;31160;49.500;7.772;2023-03-01T06:30:21;14.87;;;10.17;;
13793;SDS011;31160;49.500;7.772;2023-03-01T06:32:49;19.10;;;11.23;;
13793;SDS011;31160;49.500;7.772;2023-03-01T06:35:17;17.37;;;10.53;;
13793;SDS011;31160;49.500;7.772;2023-03-01T06:37:45;18.07;;;10.03;;
13793;SDS011;31160;49.500;7.772;2023-03-01T06:40:13;16.90;;;10.17;;
13793;SDS011;31160;49.500;7.772;2023-03-01T06:42:41;15.60;;;10.60;;
13793;SDS011;31160;49.500;7.772;2023-03-01T06:45:10;17.67;;;10.70;;
13793;SDS011;31160;49.500;7.772;2023-03-01T06:47:37;16.77;;;10.10;;
13793;SDS011;31160;49.500;7.772;2023-03-01T06:50:04;16.70;;;10.53;;
13793;SDS011;31160;49.500;7.772;2023-03-01T06:52:31;20.27;;;11.30;;
13793;SDS011;31160;49.500;7.772;2023-03-01T06:54:58;23.50;;;11.13;;
13793;SDS011;31160;49.500;7.772;2023-03-01T06:57:25;18.40;;;11.33;;
13793;SDS011;31160;49.500;7.772;2023-03-01T06:59:53;15.43;;;10.63;;
13793;SDS011;31160;49.500;7.772;2023-03-01T07:02:20;17.90;;;11.10;;
13793;SDS011;31160;49.500;7.772;2023-03-01T07:04:48;18.33;;;10.97;;
13793;SDS011;31160;49.500;7.772;2023-03-01T07:07:16;16.50;;;9.57;;
13793;SDS011;31160;49.500;7.772;2023-03-01T07:09:44;15.30;;;10.27;;
13793;SDS011;31160;49.500;7.772;2023-03-01T07:12:12;18.03;;;11.10;;
13793;SDS011;31160;49.500;7.772;2023-03-01T07:14:38;15.70;;;10.10;;
13793;SDS011;31160;49.500;7.772;2023-03-01T07:17:05;15.80;;;10.33;;
13793;SDS011;31160;49.500;7.772;2023-03-01T07:19:32;18.37;;;10.30;;
13793;SDS011;31160;49.500;7.772;2023-03-01T07:21:59;17.43;;;9.67;;
13793;SDS011;31160;49.500;7.772;2023-03-01T07:24:25;17.47;;;10.10;;
13793;SDS011;31160;49.500;7.772;2023-03-01T07:26:52;15.30;;;9.93;;
13793;SDS011;31160;49.500;7.772;2023-03-01T07:29:19;17.33;;;10.90;;
13793;SDS011;31160;49.500;7.772;2023-03-01T07:31:46;16.07;;;10.47;;
13793;SDS011;31160;49.500;7.772;2023-03-01T07:34:13;13.50;;;9.50;;
13793;SDS011;31160;49.500;7.772;2023-03-01T07:36:40;14.57;;;9.50;;
13793;SDS011;31160;49.500;7.772;2023-03-01T07:39:12;16.57;;;10.53;;
13793;SDS011;31160;49.500;7.772;2023-03-01T07:41:39;19.33;;;9.97;;
13793;SDS011;31160;49.500;7.772;2023-03-01T07:44:05;18.77;;;11.10;;
13793;SDS011;31160;49.500;7.772;2023-03-01T07:46:32;16.90;;;10.50;;
13793;SDS011;31160;49.500;7.772;2023-03-01T07:48:59;16.20;;;10.37;;
13793;SDS011;31160;49.500;7.772;2023-03-01T07:51:26;15.53;;;9.93;;
13793;SDS011;31160;49.500;7.772;2023-03-01T07:53:53;15.90;;;10.17;;
13793;SDS011;31160;49.500;7.772;2023-03-01T07:56:19;22.20;;;10.53;;
13793;SDS011;31160;49.500;7.772;2023-03-01T07:58:48;15.30;;;10.80;;
13793;SDS011;31160;49.500;7.772;2023-03-01T08:01:17;16.00;;;9.83;;
13793;SDS011;31160;49.500;7.772;2023-03-01T08:03:45;17.53;;;10.50;;
13793;SDS011;31160;49.500;7.772;2023-03-01T08:06:13;18.53;;;11.00;;
13793;SDS011;31160;49.500;7.772;2023-03-01T08:08:41;17.37;;;10.83;;
13793;SDS011;31160;49.500;7.772;2023-03-01T08:11:10;22.10;;;10.63;;
13793;SDS011;31160;49.500;7.772;2023-03-01T08:13:37;16.90;;;10.93;;
13793;SDS011;31160;49.500;7.772;2023-03-01T08:16:12;18.73;;;11.53;;
13793;SDS011;31160;49.500;7.772;2023-03-01T08:18:40;19.20;;;10.10;;
13793;SDS011;31160;49.500;7.772;2023-03-01T08:21:12;18.30;;;11.33;;
13793;SDS011;31160;49.500;7.772;2023-03-01T08:23:41;19.77;;;11.30;;
13793;SDS011;31160;49.500;7.772;2023-03-01T08:26:09;17.23;;;10.03;;
13793;SDS011;31160;49.500;7.772;2023-03-01T08:28:41;14.17;;;9.70;;
13793;SDS011;31160;49.500;7.772;2023-03-01T08:31:15;16.63;;;9.80;;
13793;SDS011;31160;49.500;7.772;2023-03-01T08:33:51;17.40;;;10.20;;
13793;SDS011;31160;49.500;7.772;2023-03-01T08:36:27;16.57;;;10.90;;
13793;SDS011;31160;49.500;7.772;2023-03-01T08:38:59;17.63;;;10.83;;
13793;SDS011;31160;49.500;7.772;2023-03-01T08:41:26;22.47;;;11.40;;
13793;SDS011;31160;49.500;7.772;2023-03-01T08:43:53;16.80;;;10.03;;
13793;SDS011;31160;49.500;7.772;2023-03-01T08:46:28;16.93;;;10.40;;
13793;SDS011;31160;49.500;7.772;2023-03-01T08:48:57;20.73;;;10.03;;
13793;SDS011;31160;49.500;7.772;2023-03-01T08:51:24;16.83;;;10.07;;
13793;SDS011;31160;49.500;7.772;2023-03-01T08:53:52;15.10;;;10.03;;
13793;SDS011;31160;49.500;7.772;2023-03-01T08:56:18;14.33;;;9.80;;
13793;SDS011;31160;49.500;7.772;2023-03-01T08:58:46;18.63;;;11.47;;
13793;SDS011;31160;49.500;7.772;2023-03-01T09:01:15;15.27;;;9.63;;
13793;SDS011;31160;49.500;7.772;2023-03-01T09:03:43;17.67;;;10.07;;
13793;SDS011;31160;49.500;7.772;2023-03-01T09:06:11;18.13;;;10.90;;
13793;SDS011;31160;49.500;7.772;2023-03-01T09:08:38;17.33;;;10.33;;
13793;SDS011;31160;49.500;7.772;2023-03-01T09:11:07;17.90;;;10.53;;
13793;SDS011;31160;49.500;7.772;2023-03-01T09:13:35;18.37;;;10.93;;
13793;SDS011;31160;49.500;7.772;2023-03-01T09:16:03;16.73;;;10.77;;
13793;SDS011;31160;49.500;7.772;2023-03-01T09:18:32;17.80;;;10.30;;
13793;SDS011;31160;49.500;7.772;2023-03-01T09:23:34;16.30;;;10.23;;
13793;SDS011;31160;49.500;7.772;2023-03-01T09:26:02;15.67;;;10.33;;
13793;SDS011;31160;49.500;7.772;2023-03-01T09:28:29;17.00;;;10.93;;
13793;SDS011;31160;49.500;7.772;2023-03-01T09:31:00;16.40;;;10.27;;
13793;SDS011;31160;49.500;7.772;2023-03-01T09:33:28;17.60;;;10.43;;
13793;SDS011;31160;49.500;7.772;2023-03-01T09:35:57;18.53;;;11.20;;
13793;SDS011;31160;49.500;7.772;2023-03-01T09:38:24;14.37;;;9.93;;
13793;SDS011;31160;49.500;7.772;2023-03-01T09:40:52;15.70;;;10.53;;
13793;SDS011;31160;49.500;7.772;2023-03-01T09:45:59;16.57;;;10.47;;
13793;SDS011;31160;49.500;7.772;2023-03-01T09:48:29;18.93;;;11.47;;
13793;SDS011;31160;49.500;7.772;2023-03-01T09:51:03;16.37;;;9.90;;
13793;SDS011;31160;49.500;7.772;2023-03-01T09:53:34;15.60;;;10.13;;
13793;SDS011;31160;49.500;7.772;2023-03-01T09:56:02;16.90;;;10.97;;
13793;SDS011;31160;49.500;7.772;2023-03-01T10:09:37;17.90;;;10.17;;
13793;SDS011;31160;49.500;7.772;2023-03-01T10:12:15;15.83;;;11.40;;
13793;SDS011;31160;49.500;7.772;2023-03-01T10:15:04;14.93;;;10.10;;
13793;SDS011;31160;49.500;7.772;2023-03-01T10:17:34;17.57;;;11.47;;
13793;SDS011;31160;49.500;7.772;2023-03-01T10:20:22;15.43;;;10.13;;
13793;SDS011;31160;49.500;7.772;2023-03-01T10:22:51;17.87;;;11.13;;
13793;SDS011;31160;49.500;7.772;2023-03-01T10:31:15;17.27;;;10.87;;
13793;SDS011;31160;49.500;7.772;2023-03-01T10:33:46;21.80;;;13.33;;
13793;SDS011;31160;49.500;7.772;2023-03-01T10:36:17;17.23;;;12.10;;
13793;SDS011;31160;49.500;7.772;2023-03-01T10:39:02;18.73;;;11.73;;
13793;SDS011;31160;49.500;7.772;2023-03-01T10:41:44;17.57;;;12.07;;
13793;SDS011;31160;49.500;7.772;2023-03-01T10:47:22;19.83;;;12.23;;
13793;SDS011;31160;49.500;7.772;2023-03-01T10:49:51;16.13;;;11.70;;
13793;SDS011;31160;49.500;7.772;2023-03-01T10:52:41;18.00;;;11.73;;
13793;SDS011;31160;49.500;7.772;2023-03-01T10:55:24;19.17;;;11.70;;
13793;SDS011;31160;49.500;7.772;2023-03-01T10:58:06;19.43;;;12.20;;
13793;SDS011;31160;49.500;7.772;2023-03-01T11:00:45;18.83;;;12.33;;
13793;SDS011;31160;49.500;7.772;2023-03-01T11:03:21;20.73;;;12.53;;
13793;SDS011;31160;49.500;7.772;2023-03-01T11:06:23;19.30;;;11.60;;
13793;SDS011;31160;49.500;7.772;2023-03-01T11:08:48;18.20;;;11.57;;
13793;SDS011;31160;49.500;7.772;2023-03-01T11:11:29;18.83;;;12.53;;
13793;SDS011;31160;49.500;7.772;2023-03-01T11:14:17;16.97;;;11.47;;
13793;SDS011;31160;49.500;7.772;2023-03-01T11:17:05;18.20;;;11.53;;
13793;SDS011;31160;49.500;7.772;2023-03-01T11:19:39;19.67;;;11.67;;
13793;SDS011;31160;49.500;7.772;2023-03-01T11:22:14;16.93;;;11.60;;
13793;SDS011;31160;49.500;7.772;2023-03-01T11:24:46;20.07;;;12.73;;
13793;SDS011;31160;49.500;7.772;2023-03-01T11:27:35;19.93;;;11.20;;
13793;SDS011;31160;49.500;7.772;2023-03-01T11:32:38;17.30;;;11.67;;
13793;SDS011;31160;49.500;7.772;2023-03-01T11:37:55;18.70;;;11.17;;
13793;SDS011;31160;49.500;7.772;2023-03-01T11:40:33;15.87;;;11.63;;
13793;SDS011;31160;49.500;7.772;2023-03-01T11:43:15;24.43;;;12.57;;
13793;SDS011;31160;49.500;7.772;2023-03-01T11:48:26;19.23;;;12.00;;
13793;SDS011;31160;49.500;7.772;2023-03-01T11:51:18;26.60;;;11.93;;
13793;SDS011;31160;49.500;7.772;2023-03-01T11:54:13;20.17;;;11.40;;
13793;SDS011;31160;49.500;7.772;2023-03-01T12:11:02;16.47;;;11.03;;
13793;SDS011;31160;49.500;7.772;2023-03-01T12:24:41;16.33;;;11.53;;
13793;SDS011;31160;49.500;7.772;2023-03-01T12:27:30;19.27;;;11.97;;
13793;SDS011;31160;49.500;7.772;2023-03-01T12:30:37;21.67;;;11.87;;
13793;SDS011;31160;49.500;7.772;2023-03-01T12:33:19;16.53;;;11.30;;
13793;SDS011;31160;49.500;7.772;2023-03-01T12:36:05;15.83;;;11.20;;
13793;SDS011;31160;49.500;7.772;2023-03-01T12:38:42;17.50;;;11.70;;
13793;SDS011;31160;49.500;7.772;2023-03-01T12:41:25;20.17;;;12.43;;
13793;SDS011;31160;49.500;7.772;2023-03-01T12:44:38;18.03;;;10.80;;
13793;SDS011;31160;49.500;7.772;2023-03-01T12:49:58;18.67;;;10.93;;
13793;SDS011;31160;49.500;7.772;2023-03-01T12:54:57;17.37;;;11.57;;
13793;SDS011;31160;49.500;7.772;2023-03-01T13:06:00;16.97;;;11.23;;
13793;SDS011;31160;49.500;7.772;2023-03-01T13:08:44;18.17;;;11.97;;
13793;SDS011;31160;49.500;7.772;2023-03-01T13:11:17;16.43;;;11.67;;
13793;SDS011;31160;49.500;7.772;2023-03-01T13:13:47;18.87;;;11.70;;
13793;SDS011;31160;49.500;7.772;2023-03-01T13:19:17;18.70;;;12.47;;
13793;SDS011;31160;49.500;7.772;2023-03-01T13:21:46;19.47;;;11.20;;
13793;SDS011;31160;49.500;7.772;2023-03-01T13:24:24;17.67;;;12.07;;
13793;SDS011;31160;49.500;7.772;2023-03-01T13:29:46;16.83;;;10.50;;
13793;SDS011;31160;49.500;7.772;2023-03-01T13:37:46;17.37;;;11.57;;
13793;SDS011;31160;49.500;7.772;2023-03-01T13:42:45;25.27;;;12.87;;
13793;SDS011;31160;49.500;7.772;2023-03-01T13:45:40;18.67;;;11.40;;
13793;SDS011;31160;49.500;7.772;2023-03-01T13:48:15;16.97;;;11.20;;
13793;SDS011;31160;49.500;7.772;2023-03-01T13:50:53;18.50;;;10.87;;
13793;SDS011;31160;49.500;7.772;2023-03-01T13:53:24;18.07;;;11.17;;
13793;SDS011;31160;49.500;7.772;2023-03-01T13:55:55;17.33;;;11.10;;
13793;SDS011;31160;49.500;7.772;2023-03-01T13:58:28;15.70;;;10.43;;
13793;SDS011;31160;49.500;7.772;2023-03-01T14:01:01;19.33;;;12.03;;
13793;SDS011;31160;49.500;7.772;2023-03-01T14:03:31;16.03;;;10.60;;
13793;SDS011;31160;49.500;7.772;2023-03-01T14:06:04;16.80;;;10.43;;
13793;SDS011;31160;49.500;7.772;2023-03-01T14:08:44;15.87;;;10.50;;
13793;SDS011;31160;49.500;7.772;2023-03-01T14:20:18;17.43;;;10.27;;
13793;SDS011;31160;49.500;7.772;2023-03-01T14:22:48;14.43;;;9.97;;
13793;SDS011;31160;49.500;7.772;2023-03-01T14:25:21;14.73;;;10.87;;
13793;SDS011;31160;49.500;7.772;2023-03-01T14:30:46;14.87;;;10.20;;
13793;SDS011;31160;49.500;7.772;2023-03-01T14:33:19;12.83;;;9.00;;
13793;SDS011;31160;49.500;7.772;2023-03-01T14:35:54;14.63;;;9.70;;
13793;SDS011;31160;49.500;7.772;2023-03-01T14:38:39;14.33;;;9.17;;
13793;SDS011;31160;49.500;7.772;2023-03-01T14:41:18;14.20;;;8.97;;
13793;SDS011;31160;49.500;7.772;2023-03-01T14:43:48;13.90;;;9.10;;
13793;SDS011;31160;49.500;7.772;2023-03-01T14:46:37;13.23;;;9.53;;
13793;SDS011;31160;49.500;7.772;2023-03-01T14:51:39;11.17;;;8.37;;
13793;SDS011;31160;49.500;7.772;2023-03-01T14:54:18;13.20;;;8.50;;
13793;SDS011;31160;49.500;7.772;2023-03-01T14:56:57;12.93;;;8.43;;
13793;SDS011;31160;49.500;7.772;2023-03-01T14:59:25;10.70;;;7.60;;
13793;SDS011;31160;49.500;7.772;2023-03-01T15:01:53;12.63;;;8.17;;
13793;SDS011;31160;49.500;7.772;2023-03-01T15:04:23;13.87;;;8.37;;
13793;SDS011;31160;49.500;7.772;2023-03-01T15:06:53;16.13;;;8.97;;
13793;SDS011;31160;49.500;7.772;2023-03-01T15:09:21;13.67;;;7.43;;
13793;SDS011;31160;49.500;7.772;2023-03-01T15:11:49;11.43;;;7.60;;
13793;SDS011;31160;49.500;7.772;2023-03-01T15:14:25;11.57;;;8.03;;
13793;SDS011;31160;49.500;7.772;2023-03-01T15:16:52;13.67;;;7.30;;
13793;SDS011;31160;49.500;7.772;2023-03-01T15:19:19;13.00;;;7.27;;
13793;SDS011;31160;49.500;7.772;2023-03-01T15:21:48;12.73;;;7.37;;
13793;SDS011;31160;49.500;7.772;2023-03-01T15:26:56;10.60;;;7.10;;
13793;SDS011;31160;49.500;7.772;2023-03-01T15:29:28;10.23;;;6.83;;
13793;SDS011;31160;49.500;7.772;2023-03-01T15:32:00;8.73;;;6.33;;
13793;SDS011;31160;49.500;7.772;2023-03-01T15:34:30;12.53;;;7.67;;
13793;SDS011;31160;49.500;7.772;2023-03-01T15:37:03;8.97;;;6.67;;
13793;SDS011;31160;49.500;7.772;2023-03-01T15:39:36;9.47;;;5.67;;
13793;SDS011;31160;49.500;7.772;2023-03-01T15:42:10;11.53;;;6.90;;
13793;SDS011;31160;49.500;7.772;2023-03-01T15:45:09;10.27;;;6.53;;
13793;SDS011;31160;49.500;7.772;2023-03-01T15:47:36;9.60;;;6.27;;
13793;SDS011;31160;49.500;7.772;2023-03-01T15:50:22;14.23;;;7.03;;
13793;SDS011;31160;49.500;7.772;2023-03-01T15:52:59;9.33;;;6.50;;
13793;SDS011;31160;49.500;7.772;2023-03-01T15:55:28;9.77;;;5.97;;
13793;SDS011;31160;49.500;7.772;2023-03-01T15:58:00;9.73;;;6.60;;
13793;SDS011;31160;49.500;7.772;2023-03-01T16:00:39;8.60;;;6.27;;
13793;SDS011;31160;49.500;7.772;2023-03-01T16:03:24;10.03;;;6.60;;
13793;SDS011;31160;49.500;7.772;2023-03-01T16:05:51;10.07;;;6.47;;
13793;SDS011;31160;49.500;7.772;2023-03-01T16:08:18;9.50;;;6.27;;
13793;SDS011;31160;49.500;7.772;2023-03-01T16:10:45;12.43;;;6.93;;
13793;SDS011;31160;49.500;7.772;2023-03-01T16:13:13;10.13;;;6.23;;
13793;SDS011;31160;49.500;7.772;2023-03-01T16:15:40;12.20;;;6.27;;
13793;SDS011;31160;49.500;7.772;2023-03-01T16:18:07;9.93;;;6.13;;
13793;SDS011;31160;49.500;7.772;2023-03-01T16:20:36;9.27;;;5.97;;
13793;SDS011;31160;49.500;7.772;2023-03-01T16:23:05;9.80;;;6.40;;
13793;SDS011;31160;49.500;7.772;2023-03-01T16:25:33;10.10;;;6.07;;
13793;SDS011;31160;49.500;7.772;2023-03-01T16:28:01;15.20;;;8.70;;
13793;SDS011;31160;49.500;7.772;2023-03-01T16:30:34;15.07;;;9.83;;
13793;SDS011;31160;49.500;7.772;2023-03-01T16:33:02;10.10;;;6.50;;
13793;SDS011;31160;49.500;7.772;2023-03-01T16:35:49;8.20;;;5.33;;
13793;SDS011;31160;49.500;7.772;2023-03-01T16:38:16;8.73;;;5.73;;
13793;SDS011;31160;49.500;7.772;2023-03-01T16:40:46;12.93;;;5.97;;
13793;SDS011;31160;49.500;7.772;2023-03-01T16:43:14;11.43;;;6.20;;